sensor_id;sensor_type;location;lat;lon;timestamp;P1;durP1;ratioP1;P2;durP2;ratioP2
55330;SDS011;58851;42.984;20.336;2022-09-09T00:04:28;19.35;;;11.45;;
55330;SDS011;58851;42.984;20.336;2022-09-09T00:15:17;13.80;;;8.57;;
55330;SDS011;58851;42.984;20.336;2022-09-09T00:20:24;15.05;;;7.90;;
55330;SDS011;58851;42.984;20.336;2022-09-09T00:26:29;16.42;;;7.57;;
55330;SDS011;58851;42.984;20.336;2022-09-09T00:28:46;15.57;;;8.30;;
55330;SDS011;58851;42.984;20.336;2022-09-09T00:31:31;23.83;;;9.50;;
55330;SDS011;58851;42.984;20.336;2022-09-09T00:33:58;17.15;;;9.18;;
55330;SDS011;58851;42.984;20.336;2022-09-09T00:36:29;23.23;;;8.80;;
55330;SDS011;58851;42.984;20.336;2022-09-09T00:39:00;16.60;;;8.45;;
55330;SDS011;58851;42.984;20.336;2022-09-09T00:44:06;15.20;;;8.20;;
55330;SDS011;58851;42.984;20.336;2022-09-09T00:46:53;12.02;;;7.32;;
55330;SDS011;58851;42.984;20.336;2022-09-09T00:57:54;23.83;;;9.13;;
55330;SDS011;58851;42.984;20.336;2022-09-09T01:00:31;18.50;;;9.82;;
55330;SDS011;58851;42.984;20.336;2022-09-09T01:03:18;16.73;;;8.57;;
55330;SDS011;58851;42.984;20.336;2022-09-09T01:12:23;17.92;;;9.27;;
55330;SDS011;58851;42.984;20.336;2022-09-09T01:14:54;21.13;;;9.35;;
55330;SDS011;58851;42.984;20.336;2022-09-09T01:17:31;15.98;;;8.50;;
55330;SDS011;58851;42.984;20.336;2022-09-09T01:20:23;19.58;;;9.43;;
55330;SDS011;58851;42.984;20.336;2022-09-09T01:26:10;15.07;;;9.32;;
55330;SDS011;58851;42.984;20.336;2022-09-09T01:28:47;16.38;;;7.80;;
55330;SDS011;58851;42.984;20.336;2022-09-09T01:31:19;20.67;;;9.60;;
55330;SDS011;58851;42.984;20.336;2022-09-09T01:34:01;18.95;;;9.32;;
55330;SDS011;58851;42.984;20.336;2022-09-09T01:39:25;20.58;;;10.43;;
55330;SDS011;58851;42.984;20.336;2022-09-09T01:41:52;17.65;;;9.07;;
55330;SDS011;58851;42.984;20.336;2022-09-09T01:44:20;18.65;;;10.07;;
55330;SDS011;58851;42.984;20.336;2022-09-09T01:46:47;15.70;;;8.85;;
55330;SDS011;58851;42.984;20.336;2022-09-09T01:49:12;15.35;;;9.52;;
55330;SDS011;58851;42.984;20.336;2022-09-09T01:51:39;17.02;;;9.50;;
55330;SDS011;58851;42.984;20.336;2022-09-09T01:54:07;18.63;;;10.00;;
55330;SDS011;58851;42.984;20.336;2022-09-09T02:07:49;28.75;;;14.55;;
55330;SDS011;58851;42.984;20.336;2022-09-09T02:10:31;36.22;;;16.58;;
55330;SDS011;58851;42.984;20.336;2022-09-09T02:12:55;34.30;;;16.35;;
55330;SDS011;58851;42.984;20.336;2022-09-09T02:15:30;24.50;;;11.05;;
55330;SDS011;58851;42.984;20.336;2022-09-09T02:18:05;17.33;;;9.50;;
55330;SDS011;58851;42.984;20.336;2022-09-09T02:20:38;15.55;;;10.30;;
55330;SDS011;58851;42.984;20.336;2022-09-09T02:23:06;18.65;;;10.02;;
55330;SDS011;58851;42.984;20.336;2022-09-09T02:25:36;16.52;;;8.80;;
55330;SDS011;58851;42.984;20.336;2022-09-09T02:28:03;12.43;;;8.45;;
55330;SDS011;58851;42.984;20.336;2022-09-09T02:30:32;21.45;;;9.35;;
55330;SDS011;58851;42.984;20.336;2022-09-09T02:33:00;21.38;;;8.60;;
55330;SDS011;58851;42.984;20.336;2022-09-09T02:35:29;18.25;;;9.02;;
55330;SDS011;58851;42.984;20.336;2022-09-09T02:37:58;15.23;;;9.05;;
55330;SDS011;58851;42.984;20.336;2022-09-09T02:40:28;19.75;;;8.90;;
55330;SDS011;58851;42.984;20.336;2022-09-09T02:42:55;18.27;;;9.27;;
55330;SDS011;58851;42.984;20.336;2022-09-09T02:45:24;20.98;;;9.77;;
55330;SDS011;58851;42.984;20.336;2022-09-09T02:53:30;13.45;;;9.25;;
55330;SDS011;58851;42.984;20.336;2022-09-09T02:56:09;16.90;;;8.07;;
55330;SDS011;58851;42.984;20.336;2022-09-09T02:58:42;24.10;;;10.00;;
55330;SDS011;58851;42.984;20.336;2022-09-09T03:01:08;21.08;;;9.13;;
55330;SDS011;58851;42.984;20.336;2022-09-09T03:03:34;15.35;;;9.45;;
55330;SDS011;58851;42.984;20.336;2022-09-09T03:06:00;17.45;;;9.95;;
55330;SDS011;58851;42.984;20.336;2022-09-09T03:08:26;17.90;;;9.38;;
55330;SDS011;58851;42.984;20.336;2022-09-09T03:10:54;17.85;;;9.48;;
55330;SDS011;58851;42.984;20.336;2022-09-09T03:13:20;19.38;;;8.85;;
55330;SDS011;58851;42.984;20.336;2022-09-09T03:15:47;14.95;;;8.75;;
55330;SDS011;58851;42.984;20.336;2022-09-09T03:18:13;16.27;;;8.98;;
55330;SDS011;58851;42.984;20.336;2022-09-09T03:20:39;16.48;;;9.18;;
55330;SDS011;58851;42.984;20.336;2022-09-09T03:23:07;20.48;;;8.55;;
55330;SDS011;58851;42.984;20.336;2022-09-09T03:25:33;12.88;;;8.95;;
55330;SDS011;58851;42.984;20.336;2022-09-09T03:27:58;15.77;;;9.02;;
55330;SDS011;58851;42.984;20.336;2022-09-09T03:30:26;17.02;;;8.63;;
55330;SDS011;58851;42.984;20.336;2022-09-09T03:32:53;23.10;;;10.23;;
55330;SDS011;58851;42.984;20.336;2022-09-09T03:35:20;18.58;;;9.32;;
55330;SDS011;58851;42.984;20.336;2022-09-09T03:37:46;22.45;;;10.98;;
55330;SDS011;58851;42.984;20.336;2022-09-09T03:40:12;17.20;;;9.20;;
55330;SDS011;58851;42.984;20.336;2022-09-09T03:42:38;19.92;;;9.30;;
55330;SDS011;58851;42.984;20.336;2022-09-09T03:45:05;18.73;;;9.90;;
55330;SDS011;58851;42.984;20.336;2022-09-09T03:47:34;18.33;;;9.73;;
55330;SDS011;58851;42.984;20.336;2022-09-09T03:50:00;17.15;;;9.50;;
55330;SDS011;58851;42.984;20.336;2022-09-09T03:52:26;16.98;;;9.60;;
55330;SDS011;58851;42.984;20.336;2022-09-09T03:54:52;17.75;;;8.90;;
55330;SDS011;58851;42.984;20.336;2022-09-09T03:57:19;15.60;;;9.07;;
55330;SDS011;58851;42.984;20.336;2022-09-09T03:59:45;16.42;;;9.23;;
55330;SDS011;58851;42.984;20.336;2022-09-09T04:02:11;16.73;;;9.77;;
55330;SDS011;58851;42.984;20.336;2022-09-09T04:04:37;23.40;;;9.27;;
55330;SDS011;58851;42.984;20.336;2022-09-09T04:07:03;19.08;;;9.77;;
55330;SDS011;58851;42.984;20.336;2022-09-09T04:09:31;17.73;;;9.65;;
55330;SDS011;58851;42.984;20.336;2022-09-09T04:11:56;21.35;;;10.32;;
55330;SDS011;58851;42.984;20.336;2022-09-09T04:14:22;16.90;;;8.77;;
55330;SDS011;58851;42.984;20.336;2022-09-09T04:16:48;18.58;;;10.35;;
55330;SDS011;58851;42.984;20.336;2022-09-09T04:19:14;15.88;;;9.85;;
55330;SDS011;58851;42.984;20.336;2022-09-09T04:21:40;21.02;;;9.80;;
55330;SDS011;58851;42.984;20.336;2022-09-09T04:24:07;19.05;;;9.90;;
55330;SDS011;58851;42.984;20.336;2022-09-09T04:26:33;16.55;;;9.40;;
55330;SDS011;58851;42.984;20.336;2022-09-09T04:29:01;22.48;;;9.75;;
55330;SDS011;58851;42.984;20.336;2022-09-09T04:31:28;16.10;;;8.93;;
55330;SDS011;58851;42.984;20.336;2022-09-09T04:33:54;12.65;;;9.60;;
55330;SDS011;58851;42.984;20.336;2022-09-09T04:36:20;18.58;;;10.18;;
55330;SDS011;58851;42.984;20.336;2022-09-09T04:38:46;23.60;;;11.70;;
55330;SDS011;58851;42.984;20.336;2022-09-09T04:41:13;21.30;;;11.65;;
55330;SDS011;58851;42.984;20.336;2022-09-09T04:43:41;21.52;;;10.57;;
55330;SDS011;58851;42.984;20.336;2022-09-09T04:46:07;22.88;;;11.23;;
55330;SDS011;58851;42.984;20.336;2022-09-09T04:48:33;26.48;;;10.15;;
55330;SDS011;58851;42.984;20.336;2022-09-09T04:51:06;15.77;;;10.68;;
55330;SDS011;58851;42.984;20.336;2022-09-09T04:53:34;17.90;;;10.77;;
55330;SDS011;58851;42.984;20.336;2022-09-09T04:56:04;19.73;;;9.82;;
55330;SDS011;58851;42.984;20.336;2022-09-09T04:58:40;23.67;;;11.10;;
55330;SDS011;58851;42.984;20.336;2022-09-09T05:01:20;15.95;;;10.05;;
55330;SDS011;58851;42.984;20.336;2022-09-09T05:03:48;16.30;;;9.25;;
55330;SDS011;58851;42.984;20.336;2022-09-09T05:06:15;23.00;;;10.63;;
55330;SDS011;58851;42.984;20.336;2022-09-09T05:08:45;24.10;;;10.75;;
55330;SDS011;58851;42.984;20.336;2022-09-09T05:13:42;32.17;;;11.23;;
55330;SDS011;58851;42.984;20.336;2022-09-09T05:16:09;17.77;;;9.98;;
55330;SDS011;58851;42.984;20.336;2022-09-09T05:18:36;18.88;;;11.20;;
55330;SDS011;58851;42.984;20.336;2022-09-09T05:21:03;20.08;;;11.15;;
55330;SDS011;58851;42.984;20.336;2022-09-09T05:23:29;19.65;;;13.85;;
55330;SDS011;58851;42.984;20.336;2022-09-09T05:25:56;20.92;;;12.35;;
55330;SDS011;58851;42.984;20.336;2022-09-09T05:28:23;20.35;;;11.68;;
55330;SDS011;58851;42.984;20.336;2022-09-09T05:31:00;23.50;;;11.93;;
55330;SDS011;58851;42.984;20.336;2022-09-09T05:33:33;23.60;;;12.57;;
55330;SDS011;58851;42.984;20.336;2022-09-09T05:36:01;17.52;;;11.68;;
55330;SDS011;58851;42.984;20.336;2022-09-09T05:38:30;21.33;;;13.30;;
55330;SDS011;58851;42.984;20.336;2022-09-09T05:40:57;27.50;;;15.43;;
55330;SDS011;58851;42.984;20.336;2022-09-09T05:43:23;24.42;;;15.57;;
55330;SDS011;58851;42.984;20.336;2022-09-09T05:46:03;24.42;;;15.35;;
55330;SDS011;58851;42.984;20.336;2022-09-09T05:48:34;29.20;;;14.73;;
55330;SDS011;58851;42.984;20.336;2022-09-09T05:51:02;22.15;;;14.60;;
55330;SDS011;58851;42.984;20.336;2022-09-09T05:53:29;24.25;;;18.55;;
55330;SDS011;58851;42.984;20.336;2022-09-09T05:56:05;23.65;;;15.27;;
55330;SDS011;58851;42.984;20.336;2022-09-09T05:58:35;23.00;;;13.43;;
55330;SDS011;58851;42.984;20.336;2022-09-09T06:01:08;24.02;;;13.85;;
55330;SDS011;58851;42.984;20.336;2022-09-09T06:03:37;23.98;;;15.82;;
55330;SDS011;58851;42.984;20.336;2022-09-09T06:06:05;26.30;;;15.20;;
55330;SDS011;58851;42.984;20.336;2022-09-09T06:08:39;21.95;;;15.77;;
55330;SDS011;58851;42.984;20.336;2022-09-09T06:11:13;25.50;;;15.13;;
55330;SDS011;58851;42.984;20.336;2022-09-09T06:13:46;22.08;;;14.90;;
55330;SDS011;58851;42.984;20.336;2022-09-09T06:16:14;21.98;;;13.95;;
55330;SDS011;58851;42.984;20.336;2022-09-09T06:18:42;20.33;;;14.68;;
55330;SDS011;58851;42.984;20.336;2022-09-09T06:21:15;26.55;;;14.55;;
55330;SDS011;58851;42.984;20.336;2022-09-09T06:23:50;25.67;;;14.88;;
55330;SDS011;58851;42.984;20.336;2022-09-09T06:26:18;22.90;;;13.35;;
55330;SDS011;58851;42.984;20.336;2022-09-09T06:28:48;23.38;;;14.30;;
55330;SDS011;58851;42.984;20.336;2022-09-09T06:31:16;21.85;;;14.10;;
55330;SDS011;58851;42.984;20.336;2022-09-09T06:33:46;22.35;;;14.00;;
55330;SDS011;58851;42.984;20.336;2022-09-09T06:38:40;30.80;;;16.70;;
55330;SDS011;58851;42.984;20.336;2022-09-09T06:41:07;28.05;;;15.55;;
55330;SDS011;58851;42.984;20.336;2022-09-09T06:43:34;28.58;;;17.08;;
55330;SDS011;58851;42.984;20.336;2022-09-09T06:46:01;27.83;;;14.63;;
55330;SDS011;58851;42.984;20.336;2022-09-09T06:48:29;24.38;;;15.75;;
55330;SDS011;58851;42.984;20.336;2022-09-09T06:53:30;22.05;;;13.95;;
55330;SDS011;58851;42.984;20.336;2022-09-09T06:55:59;51.55;;;24.95;;
55330;SDS011;58851;42.984;20.336;2022-09-09T06:58:43;32.28;;;17.02;;
55330;SDS011;58851;42.984;20.336;2022-09-09T07:01:10;26.77;;;17.48;;
55330;SDS011;58851;42.984;20.336;2022-09-09T07:03:38;30.27;;;17.00;;
55330;SDS011;58851;42.984;20.336;2022-09-09T07:06:05;24.50;;;14.55;;
55330;SDS011;58851;42.984;20.336;2022-09-09T07:08:32;21.13;;;11.18;;
55330;SDS011;58851;42.984;20.336;2022-09-09T07:11:05;26.50;;;15.30;;
55330;SDS011;58851;42.984;20.336;2022-09-09T07:13:32;24.33;;;16.60;;
55330;SDS011;58851;42.984;20.336;2022-09-09T07:16:09;33.22;;;19.75;;
55330;SDS011;58851;42.984;20.336;2022-09-09T07:18:36;24.42;;;17.45;;
55330;SDS011;58851;42.984;20.336;2022-09-09T07:21:02;28.90;;;19.67;;
55330;SDS011;58851;42.984;20.336;2022-09-09T07:23:29;45.50;;;29.00;;
55330;SDS011;58851;42.984;20.336;2022-09-09T07:25:56;31.85;;;17.38;;
55330;SDS011;58851;42.984;20.336;2022-09-09T07:28:23;29.50;;;15.93;;
55330;SDS011;58851;42.984;20.336;2022-09-09T07:30:56;25.70;;;14.57;;
55330;SDS011;58851;42.984;20.336;2022-09-09T07:33:27;30.10;;;16.35;;
55330;SDS011;58851;42.984;20.336;2022-09-09T07:36:01;23.20;;;15.80;;
55330;SDS011;58851;42.984;20.336;2022-09-09T07:38:28;22.38;;;14.20;;
55330;SDS011;58851;42.984;20.336;2022-09-09T07:41:02;28.83;;;18.52;;
55330;SDS011;58851;42.984;20.336;2022-09-09T07:43:30;38.60;;;24.48;;
55330;SDS011;58851;42.984;20.336;2022-09-09T07:45:58;45.63;;;26.92;;
55330;SDS011;58851;42.984;20.336;2022-09-09T07:48:29;34.67;;;22.83;;
55330;SDS011;58851;42.984;20.336;2022-09-09T07:51:09;43.83;;;26.05;;
55330;SDS011;58851;42.984;20.336;2022-09-09T07:53:45;40.78;;;23.27;;
55330;SDS011;58851;42.984;20.336;2022-09-09T07:56:15;33.60;;;20.58;;
55330;SDS011;58851;42.984;20.336;2022-09-09T07:58:42;32.90;;;18.80;;
55330;SDS011;58851;42.984;20.336;2022-09-09T08:01:14;41.10;;;21.88;;
55330;SDS011;58851;42.984;20.336;2022-09-09T08:03:43;27.88;;;19.20;;
55330;SDS011;58851;42.984;20.336;2022-09-09T08:06:10;30.20;;;18.13;;
55330;SDS011;58851;42.984;20.336;2022-09-09T08:08:37;32.58;;;17.15;;
55330;SDS011;58851;42.984;20.336;2022-09-09T08:11:10;31.20;;;16.70;;
55330;SDS011;58851;42.984;20.336;2022-09-09T08:13:38;28.30;;;15.07;;
55330;SDS011;58851;42.984;20.336;2022-09-09T08:16:09;26.08;;;14.40;;
55330;SDS011;58851;42.984;20.336;2022-09-09T08:18:37;27.73;;;17.45;;
55330;SDS011;58851;42.984;20.336;2022-09-09T08:21:08;29.08;;;16.92;;
55330;SDS011;58851;42.984;20.336;2022-09-09T08:23:37;30.30;;;19.95;;
55330;SDS011;58851;42.984;20.336;2022-09-09T08:26:07;138.45;;;72.05;;
55330;SDS011;58851;42.984;20.336;2022-09-09T08:28:36;117.00;;;66.65;;
55330;SDS011;58851;42.984;20.336;2022-09-09T08:31:22;57.03;;;38.35;;
55330;SDS011;58851;42.984;20.336;2022-09-09T08:33:56;57.45;;;36.20;;
55330;SDS011;58851;42.984;20.336;2022-09-09T08:36:25;49.42;;;31.15;;
55330;SDS011;58851;42.984;20.336;2022-09-09T08:38:53;48.00;;;35.78;;
55330;SDS011;58851;42.984;20.336;2022-09-09T08:44:14;33.33;;;22.13;;
55330;SDS011;58851;42.984;20.336;2022-09-09T08:52:30;25.52;;;16.25;;
55330;SDS011;58851;42.984;20.336;2022-09-09T08:55:22;27.05;;;17.05;;
55330;SDS011;58851;42.984;20.336;2022-09-09T08:58:00;27.30;;;16.15;;
55330;SDS011;58851;42.984;20.336;2022-09-09T09:00:42;24.73;;;15.55;;
55330;SDS011;58851;42.984;20.336;2022-09-09T09:03:20;25.92;;;15.80;;
55330;SDS011;58851;42.984;20.336;2022-09-09T09:06:12;22.90;;;16.40;;
55330;SDS011;58851;42.984;20.336;2022-09-09T09:11:40;24.25;;;17.45;;
55330;SDS011;58851;42.984;20.336;2022-09-09T09:14:17;23.00;;;13.07;;
55330;SDS011;58851;42.984;20.336;2022-09-09T09:19:23;16.58;;;9.52;;
55330;SDS011;58851;42.984;20.336;2022-09-09T09:22:13;14.88;;;8.48;;
55330;SDS011;58851;42.984;20.336;2022-09-09T09:24:57;17.90;;;10.60;;
55330;SDS011;58851;42.984;20.336;2022-09-09T09:30:29;17.60;;;11.75;;
55330;SDS011;58851;42.984;20.336;2022-09-09T09:33:02;17.45;;;12.18;;
55330;SDS011;58851;42.984;20.336;2022-09-09T09:35:56;22.85;;;13.43;;
55330;SDS011;58851;42.984;20.336;2022-09-09T09:38:25;19.65;;;14.48;;
55330;SDS011;58851;42.984;20.336;2022-09-09T09:40:56;22.73;;;14.13;;
55330;SDS011;58851;42.984;20.336;2022-09-09T09:43:25;17.70;;;12.43;;
55330;SDS011;58851;42.984;20.336;2022-09-09T09:45:56;20.63;;;12.52;;
55330;SDS011;58851;42.984;20.336;2022-09-09T09:48:24;22.20;;;12.85;;
55330;SDS011;58851;42.984;20.336;2022-09-09T09:50:55;18.60;;;11.48;;
55330;SDS011;58851;42.984;20.336;2022-09-09T09:53:27;18.92;;;12.35;;
55330;SDS011;58851;42.984;20.336;2022-09-09T09:58:31;12.35;;;8.70;;
55330;SDS011;58851;42.984;20.336;2022-09-09T10:01:28;16.25;;;9.43;;
55330;SDS011;58851;42.984;20.336;2022-09-09T10:04:20;12.75;;;8.40;;
55330;SDS011;58851;42.984;20.336;2022-09-09T10:06:50;11.32;;;7.82;;
55330;SDS011;58851;42.984;20.336;2022-09-09T10:09:24;11.73;;;6.90;;
55330;SDS011;58851;42.984;20.336;2022-09-09T10:22:37;13.15;;;7.05;;
55330;SDS011;58851;42.984;20.336;2022-09-09T10:25:18;13.93;;;7.32;;
55330;SDS011;58851;42.984;20.336;2022-09-09T10:31:19;14.02;;;7.70;;
55330;SDS011;58851;42.984;20.336;2022-09-09T10:34:01;14.18;;;7.32;;
55330;SDS011;58851;42.984;20.336;2022-09-09T10:36:39;10.77;;;7.45;;
55330;SDS011;58851;42.984;20.336;2022-09-09T10:44:53;11.63;;;7.07;;
55330;SDS011;58851;42.984;20.336;2022-09-09T10:47:49;8.60;;;5.00;;
55330;SDS011;58851;42.984;20.336;2022-09-09T10:53:35;9.38;;;5.75;;
55330;SDS011;58851;42.984;20.336;2022-09-09T10:56:08;11.52;;;6.85;;
55330;SDS011;58851;42.984;20.336;2022-09-09T10:58:48;7.90;;;5.22;;
55330;SDS011;58851;42.984;20.336;2022-09-09T11:01:19;11.50;;;4.03;;
55330;SDS011;58851;42.984;20.336;2022-09-09T11:03:52;7.43;;;4.35;;
55330;SDS011;58851;42.984;20.336;2022-09-09T11:06:22;8.50;;;4.03;;
55330;SDS011;58851;42.984;20.336;2022-09-09T11:08:54;6.57;;;3.75;;
55330;SDS011;58851;42.984;20.336;2022-09-09T11:11:48;6.78;;;4.13;;
55330;SDS011;58851;42.984;20.336;2022-09-09T11:17:06;5.97;;;3.45;;
55330;SDS011;58851;42.984;20.336;2022-09-09T11:22:16;8.32;;;3.78;;
55330;SDS011;58851;42.984;20.336;2022-09-09T11:27:37;6.20;;;3.50;;
55330;SDS011;58851;42.984;20.336;2022-09-09T11:30:14;6.10;;;3.28;;
55330;SDS011;58851;42.984;20.336;2022-09-09T11:35:49;5.05;;;3.33;;
55330;SDS011;58851;42.984;20.336;2022-09-09T11:41:16;6.25;;;4.35;;
55330;SDS011;58851;42.984;20.336;2022-09-09T11:43:46;10.10;;;4.35;;
55330;SDS011;58851;42.984;20.336;2022-09-09T11:46:22;9.38;;;4.28;;
55330;SDS011;58851;42.984;20.336;2022-09-09T11:49:02;8.75;;;4.53;;
55330;SDS011;58851;42.984;20.336;2022-09-09T11:51:31;7.63;;;3.67;;
55330;SDS011;58851;42.984;20.336;2022-09-09T11:54:02;10.85;;;5.30;;
55330;SDS011;58851;42.984;20.336;2022-09-09T11:56:48;13.75;;;6.90;;
55330;SDS011;58851;42.984;20.336;2022-09-09T11:59:23;11.18;;;6.82;;
55330;SDS011;58851;42.984;20.336;2022-09-09T12:06:54;16.05;;;5.78;;
55330;SDS011;58851;42.984;20.336;2022-09-09T12:09:54;16.08;;;7.70;;
55330;SDS011;58851;42.984;20.336;2022-09-09T12:12:35;11.80;;;6.13;;
55330;SDS011;58851;42.984;20.336;2022-09-09T12:15:17;7.82;;;5.15;;
55330;SDS011;58851;42.984;20.336;2022-09-09T12:17:56;13.90;;;5.22;;
55330;SDS011;58851;42.984;20.336;2022-09-09T12:28:59;8.43;;;5.47;;
55330;SDS011;58851;42.984;20.336;2022-09-09T12:36:58;11.90;;;6.72;;
55330;SDS011;58851;42.984;20.336;2022-09-09T12:39:44;11.35;;;6.55;;
55330;SDS011;58851;42.984;20.336;2022-09-09T12:42:18;13.02;;;8.50;;
55330;SDS011;58851;42.984;20.336;2022-09-09T12:47:58;8.52;;;4.40;;
55330;SDS011;58851;42.984;20.336;2022-09-09T12:50:29;10.93;;;4.70;;
55330;SDS011;58851;42.984;20.336;2022-09-09T12:52:58;13.82;;;5.03;;
55330;SDS011;58851;42.984;20.336;2022-09-09T12:55:31;12.30;;;4.70;;
55330;SDS011;58851;42.984;20.336;2022-09-09T12:58:03;9.25;;;4.47;;
55330;SDS011;58851;42.984;20.336;2022-09-09T13:00:32;10.77;;;5.03;;
55330;SDS011;58851;42.984;20.336;2022-09-09T13:03:00;12.55;;;5.55;;
55330;SDS011;58851;42.984;20.336;2022-09-09T13:05:41;12.43;;;6.10;;
55330;SDS011;58851;42.984;20.336;2022-09-09T13:08:11;10.65;;;5.63;;
55330;SDS011;58851;42.984;20.336;2022-09-09T13:10:46;15.13;;;9.27;;
55330;SDS011;58851;42.984;20.336;2022-09-09T13:13:23;23.95;;;16.55;;
55330;SDS011;58851;42.984;20.336;2022-09-09T13:16:00;54.05;;;38.72;;
55330;SDS011;58851;42.984;20.336;2022-09-09T13:18:30;14.55;;;9.65;;
55330;SDS011;58851;42.984;20.336;2022-09-09T13:20:58;16.60;;;8.65;;
55330;SDS011;58851;42.984;20.336;2022-09-09T13:23:29;15.07;;;9.32;;
55330;SDS011;58851;42.984;20.336;2022-09-09T13:25:58;35.42;;;31.75;;
55330;SDS011;58851;42.984;20.336;2022-09-09T13:28:27;89.00;;;76.38;;
55330;SDS011;58851;42.984;20.336;2022-09-09T13:31:01;27.08;;;24.13;;
55330;SDS011;58851;42.984;20.336;2022-09-09T13:33:36;18.13;;;7.72;;
55330;SDS011;58851;42.984;20.336;2022-09-09T13:36:04;21.45;;;12.27;;
55330;SDS011;58851;42.984;20.336;2022-09-09T13:38:40;11.95;;;8.30;;
55330;SDS011;58851;42.984;20.336;2022-09-09T13:41:20;15.63;;;8.27;;
55330;SDS011;58851;42.984;20.336;2022-09-09T13:43:48;21.65;;;17.40;;
55330;SDS011;58851;42.984;20.336;2022-09-09T13:46:35;16.38;;;10.98;;
55330;SDS011;58851;42.984;20.336;2022-09-09T13:54:03;19.23;;;9.18;;
55330;SDS011;58851;42.984;20.336;2022-09-09T13:56:31;15.32;;;7.70;;
55330;SDS011;58851;42.984;20.336;2022-09-09T13:58:58;16.75;;;7.43;;
55330;SDS011;58851;42.984;20.336;2022-09-09T14:01:24;13.23;;;6.15;;
55330;SDS011;58851;42.984;20.336;2022-09-09T14:03:50;9.52;;;4.50;;
55330;SDS011;58851;42.984;20.336;2022-09-09T14:06:16;10.10;;;4.95;;
55330;SDS011;58851;42.984;20.336;2022-09-09T14:08:44;13.85;;;4.90;;
55330;SDS011;58851;42.984;20.336;2022-09-09T14:11:11;14.07;;;6.88;;
55330;SDS011;58851;42.984;20.336;2022-09-09T14:13:38;42.55;;;38.75;;
55330;SDS011;58851;42.984;20.336;2022-09-09T14:16:04;64.10;;;58.53;;
55330;SDS011;58851;42.984;20.336;2022-09-09T14:18:30;28.02;;;24.92;;
55330;SDS011;58851;42.984;20.336;2022-09-09T14:20:55;19.67;;;11.68;;
55330;SDS011;58851;42.984;20.336;2022-09-09T14:23:23;16.90;;;8.02;;
55330;SDS011;58851;42.984;20.336;2022-09-09T14:25:50;21.35;;;8.63;;
55330;SDS011;58851;42.984;20.336;2022-09-09T14:28:16;44.50;;;20.67;;
55330;SDS011;58851;42.984;20.336;2022-09-09T14:30:43;37.20;;;23.10;;
55330;SDS011;58851;42.984;20.336;2022-09-09T14:33:12;22.75;;;15.10;;
55330;SDS011;58851;42.984;20.336;2022-09-09T14:35:39;13.20;;;8.15;;
55330;SDS011;58851;42.984;20.336;2022-09-09T14:38:06;18.52;;;9.05;;
55330;SDS011;58851;42.984;20.336;2022-09-09T14:40:34;18.08;;;5.82;;
55330;SDS011;58851;42.984;20.336;2022-09-09T14:43:01;10.25;;;4.60;;
55330;SDS011;58851;42.984;20.336;2022-09-09T14:45:27;17.80;;;8.80;;
55330;SDS011;58851;42.984;20.336;2022-09-09T14:47:53;24.83;;;10.68;;
55330;SDS011;58851;42.984;20.336;2022-09-09T14:50:19;19.23;;;9.57;;
55330;SDS011;58851;42.984;20.336;2022-09-09T14:52:46;13.43;;;8.35;;
55330;SDS011;58851;42.984;20.336;2022-09-09T14:55:12;15.27;;;7.65;;
55330;SDS011;58851;42.984;20.336;2022-09-09T14:57:38;14.93;;;5.80;;
55330;SDS011;58851;42.984;20.336;2022-09-09T15:00:05;10.90;;;5.63;;
55330;SDS011;58851;42.984;20.336;2022-09-09T15:02:33;17.20;;;7.60;;
55330;SDS011;58851;42.984;20.336;2022-09-09T15:04:59;19.55;;;7.93;;
55330;SDS011;58851;42.984;20.336;2022-09-09T15:07:25;15.73;;;8.68;;
55330;SDS011;58851;42.984;20.336;2022-09-09T15:09:52;17.90;;;9.25;;
55330;SDS011;58851;42.984;20.336;2022-09-09T15:12:18;18.02;;;11.20;;
55330;SDS011;58851;42.984;20.336;2022-09-09T15:14:44;18.83;;;9.05;;
55330;SDS011;58851;42.984;20.336;2022-09-09T15:17:10;13.93;;;6.53;;
55330;SDS011;58851;42.984;20.336;2022-09-09T15:19:37;25.40;;;7.47;;
55330;SDS011;58851;42.984;20.336;2022-09-09T15:22:03;16.40;;;9.18;;
55330;SDS011;58851;42.984;20.336;2022-09-09T15:24:33;15.98;;;9.73;;
55330;SDS011;58851;42.984;20.336;2022-09-09T15:27:00;26.80;;;9.70;;
55330;SDS011;58851;42.984;20.336;2022-09-09T15:29:27;13.77;;;9.40;;
55330;SDS011;58851;42.984;20.336;2022-09-09T15:31:53;16.63;;;10.50;;
55330;SDS011;58851;42.984;20.336;2022-09-09T15:34:23;18.13;;;9.13;;
55330;SDS011;58851;42.984;20.336;2022-09-09T15:36:49;16.92;;;8.15;;
55330;SDS011;58851;42.984;20.336;2022-09-09T15:39:16;11.50;;;6.40;;
55330;SDS011;58851;42.984;20.336;2022-09-09T15:41:43;14.20;;;6.65;;
55330;SDS011;58851;42.984;20.336;2022-09-09T15:44:10;11.63;;;5.70;;
55330;SDS011;58851;42.984;20.336;2022-09-09T15:46:43;18.33;;;4.95;;
55330;SDS011;58851;42.984;20.336;2022-09-09T15:49:20;15.15;;;5.95;;
55330;SDS011;58851;42.984;20.336;2022-09-09T15:51:52;17.63;;;9.63;;
55330;SDS011;58851;42.984;20.336;2022-09-09T15:54:30;15.57;;;8.70;;
55330;SDS011;58851;42.984;20.336;2022-09-09T15:56:59;16.08;;;8.15;;
55330;SDS011;58851;42.984;20.336;2022-09-09T15:59:27;10.40;;;6.75;;
55330;SDS011;58851;42.984;20.336;2022-09-09T16:01:54;14.70;;;8.25;;
55330;SDS011;58851;42.984;20.336;2022-09-09T16:04:21;15.27;;;7.63;;
55330;SDS011;58851;42.984;20.336;2022-09-09T16:06:56;11.85;;;7.55;;
55330;SDS011;58851;42.984;20.336;2022-09-09T16:09:24;16.88;;;9.63;;
55330;SDS011;58851;42.984;20.336;2022-09-09T16:11:51;18.20;;;10.48;;
55330;SDS011;58851;42.984;20.336;2022-09-09T16:14:18;22.88;;;12.27;;
55330;SDS011;58851;42.984;20.336;2022-09-09T16:16:44;17.35;;;11.13;;
55330;SDS011;58851;42.984;20.336;2022-09-09T16:19:11;19.00;;;10.27;;
55330;SDS011;58851;42.984;20.336;2022-09-09T16:21:39;17.90;;;9.05;;
55330;SDS011;58851;42.984;20.336;2022-09-09T16:24:10;13.43;;;7.93;;
55330;SDS011;58851;42.984;20.336;2022-09-09T16:26:38;17.30;;;9.07;;
55330;SDS011;58851;42.984;20.336;2022-09-09T16:29:05;27.33;;;13.27;;
55330;SDS011;58851;42.984;20.336;2022-09-09T16:31:32;20.88;;;12.38;;
55330;SDS011;58851;42.984;20.336;2022-09-09T16:33:58;25.88;;;12.48;;
55330;SDS011;58851;42.984;20.336;2022-09-09T16:36:24;19.65;;;12.15;;
55330;SDS011;58851;42.984;20.336;2022-09-09T16:39:03;27.73;;;16.60;;
55330;SDS011;58851;42.984;20.336;2022-09-09T16:41:37;33.17;;;21.05;;
55330;SDS011;58851;42.984;20.336;2022-09-09T16:44:05;22.88;;;12.95;;
55330;SDS011;58851;42.984;20.336;2022-09-09T16:46:39;16.40;;;9.60;;
55330;SDS011;58851;42.984;20.336;2022-09-09T16:49:10;20.20;;;10.02;;
55330;SDS011;58851;42.984;20.336;2022-09-09T16:51:42;14.77;;;8.95;;
55330;SDS011;58851;42.984;20.336;2022-09-09T16:54:12;13.43;;;8.25;;
55330;SDS011;58851;42.984;20.336;2022-09-09T16:56:41;19.63;;;7.40;;
55330;SDS011;58851;42.984;20.336;2022-09-09T16:59:10;14.02;;;7.28;;
55330;SDS011;58851;42.984;20.336;2022-09-09T17:01:41;16.65;;;8.38;;
55330;SDS011;58851;42.984;20.336;2022-09-09T17:04:09;24.45;;;12.43;;
55330;SDS011;58851;42.984;20.336;2022-09-09T17:06:38;19.52;;;11.45;;